sensor_id;sensor_type;location;lat;lon;timestamp;temperature;humidity
9437;DHT22;4757;59.334;18.034;2023-03-19T00:00:51;3.80;99.90
9437;DHT22;4757;59.334;18.034;2023-03-19T00:03:19;3.80;99.90
9437;DHT22;4757;59.334;18.034;2023-03-19T00:05:52;3.90;99.90
9437;DHT22;4757;59.334;18.034;2023-03-19T00:08:20;3.80;99.90
9437;DHT22;4757;59.334;18.034;2023-03-19T00:10:48;3.80;99.90
9437;DHT22;4757;59.334;18.034;2023-03-19T00:13:16;3.80;99.90
9437;DHT22;4757;59.334;18.034;2023-03-19T00:15:44;3.80;99.90
9437;DHT22;4757;59.334;18.034;2023-03-19T00:18:11;3.80;99.90
9437;DHT22;4757;59.334;18.034;2023-03-19T00:20:38;3.80;99.90
9437;DHT22;4757;59.334;18.034;2023-03-19T00:23:05;3.70;99.90
9437;DHT22;4757;59.334;18.034;2023-03-19T00:25:33;3.70;99.90
9437;DHT22;4757;59.334;18.034;2023-03-19T00:28:00;3.70;99.90
9437;DHT22;4757;59.334;18.034;2023-03-19T00:30:27;3.70;99.90
9437;DHT22;4757;59.334;18.034;2023-03-19T00:32:55;3.70;99.90
9437;DHT22;4757;59.334;18.034;2023-03-19T00:35:23;3.70;99.90
9437;DHT22;4757;59.334;18.034;2023-03-19T00:37:50;3.70;99.90
9437;DHT22;4757;59.334;18.034;2023-03-19T00:40:18;3.70;99.90
9437;DHT22;4757;59.334;18.034;2023-03-19T00:42:45;3.70;99.90
9437;DHT22;4757;59.334;18.034;2023-03-19T00:45:12;3.70;99.90
9437;DHT22;4757;59.334;18.034;2023-03-19T00:47:40;3.60;99.90
9437;DHT22;4757;59.334;18.034;2023-03-19T00:50:08;3.60;99.90
9437;DHT22;4757;59.334;18.034;2023-03-19T00:52:35;3.70;99.90
9437;DHT22;4757;59.334;18.034;2023-03-19T00:55:03;3.70;99.90
9437;DHT22;4757;59.334;18.034;2023-03-19T00:57:30;3.70;99.90
9437;DHT22;4757;59.334;18.034;2023-03-19T00:59:57;3.70;99.90
9437;DHT22;4757;59.334;18.034;2023-03-19T01:02:25;3.70;99.90
9437;DHT22;4757;59.334;18.034;2023-03-19T01:04:52;3.70;99.90
9437;DHT22;4757;59.334;18.034;2023-03-19T01:07:20;3.70;99.90
9437;DHT22;4757;59.334;18.034;2023-03-19T01:09:47;3.80;99.90
9437;DHT22;4757;59.334;18.034;2023-03-19T01:12:14;3.70;99.90
9437;DHT22;4757;59.334;18.034;2023-03-19T01:14:42;3.80;99.90
9437;DHT22;4757;59.334;18.034;2023-03-19T01:17:09;3.80;99.90
9437;DHT22;4757;59.334;18.034;2023-03-19T01:19:36;3.90;99.90
9437;DHT22;4757;59.334;18.034;2023-03-19T01:22:04;3.80;99.90
9437;DHT22;4757;59.334;18.034;2023-03-19T01:24:31;3.80;99.90
9437;DHT22;4757;59.334;18.034;2023-03-19T01:26:58;3.90;99.90
9437;DHT22;4757;59.334;18.034;2023-03-19T01:29:25;3.80;99.90
9437;DHT22;4757;59.334;18.034;2023-03-19T01:31:52;3.80;99.90
9437;DHT22;4757;59.334;18.034;2023-03-19T01:34:19;3.80;99.90
9437;DHT22;4757;59.334;18.034;2023-03-19T01:36:47;3.80;99.90
9437;DHT22;4757;59.334;18.034;2023-03-19T01:39:15;3.90;99.90
9437;DHT22;4757;59.334;18.034;2023-03-19T01:41:42;3.90;99.90
9437;DHT22;4757;59.334;18.034;2023-03-19T01:44:26;3.90;99.90
9437;DHT22;4757;59.334;18.034;2023-03-19T01:46:56;3.90;99.90
9437;DHT22;4757;59.334;18.034;2023-03-19T01:49:26;3.90;99.90
9437;DHT22;4757;59.334;18.034;2023-03-19T01:51:57;4.00;99.90
9437;DHT22;4757;59.334;18.034;2023-03-19T01:54:26;4.00;99.90
9437;DHT22;4757;59.334;18.034;2023-03-19T01:57:09;4.00;99.90
9437;DHT22;4757;59.334;18.034;2023-03-19T01:59:41;4.00;99.90
9437;DHT22;4757;59.334;18.034;2023-03-19T02:04:42;4.00;99.90
9437;DHT22;4757;59.334;18.034;2023-03-19T02:07:10;4.10;99.90
9437;DHT22;4757;59.334;18.034;2023-03-19T02:09:40;4.10;99.90
9437;DHT22;4757;59.334;18.034;2023-03-19T02:12:08;4.00;99.90
9437;DHT22;4757;59.334;18.034;2023-03-19T02:14:35;4.10;99.90
9437;DHT22;4757;59.334;18.034;2023-03-19T02:17:03;4.10;99.90
9437;DHT22;4757;59.334;18.034;2023-03-19T02:22:02;4.20;99.90
9437;DHT22;4757;59.334;18.034;2023-03-19T02:27:22;4.20;99.90
9437;DHT22;4757;59.334;18.034;2023-03-19T02:29:49;4.20;99.90
9437;DHT22;4757;59.334;18.034;2023-03-19T02:32:16;4.30;99.90
9437;DHT22;4757;59.334;18.034;2023-03-19T02:34:44;4.20;99.90
9437;DHT22;4757;59.334;18.034;2023-03-19T02:37:26;4.20;99.90
9437;DHT22;4757;59.334;18.034;2023-03-19T02:42:28;4.20;99.90
9437;DHT22;4757;59.334;18.034;2023-03-19T02:44:56;4.20;99.90
9437;DHT22;4757;59.334;18.034;2023-03-19T02:47:25;4.10;99.90
9437;DHT22;4757;59.334;18.034;2023-03-19T02:49:53;4.10;99.90
9437;DHT22;4757;59.334;18.034;2023-03-19T02:52:20;4.10;99.90
9437;DHT22;4757;59.334;18.034;2023-03-19T02:54:47;4.10;99.90
9437;DHT22;4757;59.334;18.034;2023-03-19T02:57:14;4.10;99.90
9437;DHT22;4757;59.334;18.034;2023-03-19T02:59:41;4.10;99.90
9437;DHT22;4757;59.334;18.034;2023-03-19T03:02:08;4.10;99.90
9437;DHT22;4757;59.334;18.034;2023-03-19T03:04:36;4.20;99.90
9437;DHT22;4757;59.334;18.034;2023-03-19T03:07:04;4.10;99.90
9437;DHT22;4757;59.334;18.034;2023-03-19T03:09:32;4.10;99.90
9437;DHT22;4757;59.334;18.034;2023-03-19T03:11:59;4.20;99.90
9437;DHT22;4757;59.334;18.034;2023-03-19T03:14:26;4.20;99.90
9437;DHT22;4757;59.334;18.034;2023-03-19T03:16:53;4.20;99.90
9437;DHT22;4757;59.334;18.034;2023-03-19T03:19:20;4.10;99.90
9437;DHT22;4757;59.334;18.034;2023-03-19T03:21:49;4.20;99.90
9437;DHT22;4757;59.334;18.034;2023-03-19T03:24:16;4.20;99.90
9437;DHT22;4757;59.334;18.034;2023-03-19T03:26:43;4.10;99.90
9437;DHT22;4757;59.334;18.034;2023-03-19T03:29:11;4.10;99.90
9437;DHT22;4757;59.334;18.034;2023-03-19T03:31:38;4.10;99.90
9437;DHT22;4757;59.334;18.034;2023-03-19T03:34:05;4.10;99.90
9437;DHT22;4757;59.334;18.034;2023-03-19T03:36:33;4.10;99.90
9437;DHT22;4757;59.334;18.034;2023-03-19T03:39:00;4.10;99.90
9437;DHT22;4757;59.334;18.034;2023-03-19T03:41:27;4.00;99.90
9437;DHT22;4757;59.334;18.034;2023-03-19T03:43:54;4.00;99.90
9437;DHT22;4757;59.334;18.034;2023-03-19T03:46:22;4.00;99.90
9437;DHT22;4757;59.334;18.034;2023-03-19T03:48:50;4.00;99.90
9437;DHT22;4757;59.334;18.034;2023-03-19T03:51:18;4.10;99.90
9437;DHT22;4757;59.334;18.034;2023-03-19T03:53:45;4.00;99.90
9437;DHT22;4757;59.334;18.034;2023-03-19T03:56:12;4.00;99.90
9437;DHT22;4757;59.334;18.034;2023-03-19T03:58:40;3.90;99.90
9437;DHT22;4757;59.334;18.034;2023-03-19T04:01:08;4.00;99.90
9437;DHT22;4757;59.334;18.034;2023-03-19T04:03:37;4.10;99.90
9437;DHT22;4757;59.334;18.034;2023-03-19T04:06:04;4.10;99.90
9437;DHT22;4757;59.334;18.034;2023-03-19T04:08:31;4.20;99.90
9437;DHT22;4757;59.334;18.034;2023-03-19T04:10:58;4.20;99.90
9437;DHT22;4757;59.334;18.034;2023-03-19T04:13:26;4.10;99.90
9437;DHT22;4757;59.334;18.034;2023-03-19T04:15:54;4.00;99.90
9437;DHT22;4757;59.334;18.034;2023-03-19T04:18:22;4.00;99.90
9437;DHT22;4757;59.334;18.034;2023-03-19T04:20:49;3.90;99.90
9437;DHT22;4757;59.334;18.034;2023-03-19T04:23:15;4.00;99.90
9437;DHT22;4757;59.334;18.034;2023-03-19T04:25:43;4.00;99.90
9437;DHT22;4757;59.334;18.034;2023-03-19T04:28:10;4.00;99.90
9437;DHT22;4757;59.334;18.034;2023-03-19T04:30:37;4.10;99.90
9437;DHT22;4757;59.334;18.034;2023-03-19T04:33:04;4.10;99.90
9437;DHT22;4757;59.334;18.034;2023-03-19T04:35:33;4.00;99.90
9437;DHT22;4757;59.334;18.034;2023-03-19T04:38:00;4.00;99.90
9437;DHT22;4757;59.334;18.034;2023-03-19T04:40:27;4.00;99.90
9437;DHT22;4757;59.334;18.034;2023-03-19T04:42:54;4.00;99.90
9437;DHT22;4757;59.334;18.034;2023-03-19T04:45:21;3.90;99.90
9437;DHT22;4757;59.334;18.034;2023-03-19T04:47:49;3.80;99.90
9437;DHT22;4757;59.334;18.034;2023-03-19T04:50:17;3.80;99.90
9437;DHT22;4757;59.334;18.034;2023-03-19T04:52:45;3.80;99.90
9437;DHT22;4757;59.334;18.034;2023-03-19T04:55:12;3.60;99.90
9437;DHT22;4757;59.334;18.034;2023-03-19T04:57:39;3.50;99.90
9437;DHT22;4757;59.334;18.034;2023-03-19T05:00:10;3.50;99.90
9437;DHT22;4757;59.334;18.034;2023-03-19T05:02:37;3.60;99.90
9437;DHT22;4757;59.334;18.034;2023-03-19T05:05:05;3.60;99.90
9437;DHT22;4757;59.334;18.034;2023-03-19T05:07:32;3.60;99.90
9437;DHT22;4757;59.334;18.034;2023-03-19T05:09:59;3.60;99.90
9437;DHT22;4757;59.334;18.034;2023-03-19T05:12:27;3.60;99.90
9437;DHT22;4757;59.334;18.034;2023-03-19T05:14:54;3.60;99.90
9437;DHT22;4757;59.334;18.034;2023-03-19T05:17:21;3.60;99.90
9437;DHT22;4757;59.334;18.034;2023-03-19T05:19:48;3.60;99.90
9437;DHT22;4757;59.334;18.034;2023-03-19T05:22:15;3.70;99.90
9437;DHT22;4757;59.334;18.034;2023-03-19T05:24:42;3.60;99.90
9437;DHT22;4757;59.334;18.034;2023-03-19T05:27:10;3.60;99.90
9437;DHT22;4757;59.334;18.034;2023-03-19T05:29:38;3.50;99.90
9437;DHT22;4757;59.334;18.034;2023-03-19T05:32:07;3.40;99.90
9437;DHT22;4757;59.334;18.034;2023-03-19T05:34:34;3.40;99.90
9437;DHT22;4757;59.334;18.034;2023-03-19T05:37:01;3.40;99.90
9437;DHT22;4757;59.334;18.034;2023-03-19T05:39:28;3.40;99.90
9437;DHT22;4757;59.334;18.034;2023-03-19T05:41:56;3.50;99.90
9437;DHT22;4757;59.334;18.034;2023-03-19T05:44:23;3.50;99.90
9437;DHT22;4757;59.334;18.034;2023-03-19T05:46:50;3.50;99.90
9437;DHT22;4757;59.334;18.034;2023-03-19T05:49:18;3.50;99.90
9437;DHT22;4757;59.334;18.034;2023-03-19T05:51:45;3.50;99.90
9437;DHT22;4757;59.334;18.034;2023-03-19T05:54:12;3.50;99.90
9437;DHT22;4757;59.334;18.034;2023-03-19T05:56:39;3.50;99.90
9437;DHT22;4757;59.334;18.034;2023-03-19T05:59:06;3.50;99.90
9437;DHT22;4757;59.334;18.034;2023-03-19T06:01:34;3.60;99.90
9437;DHT22;4757;59.334;18.034;2023-03-19T06:04:01;3.50;99.90
9437;DHT22;4757;59.334;18.034;2023-03-19T06:06:31;3.60;99.90
9437;DHT22;4757;59.334;18.034;2023-03-19T06:08:58;3.70;99.90
9437;DHT22;4757;59.334;18.034;2023-03-19T06:11:26;3.70;99.90
9437;DHT22;4757;59.334;18.034;2023-03-19T06:13:53;3.70;99.90
9437;DHT22;4757;59.334;18.034;2023-03-19T06:16:20;3.60;99.90
9437;DHT22;4757;59.334;18.034;2023-03-19T06:18:48;3.60;99.90
9437;DHT22;4757;59.334;18.034;2023-03-19T06:21:15;3.60;99.90
9437;DHT22;4757;59.334;18.034;2023-03-19T06:23:42;3.60;99.90
9437;DHT22;4757;59.334;18.034;2023-03-19T06:26:09;3.60;99.90
9437;DHT22;4757;59.334;18.034;2023-03-19T06:28:37;3.50;99.90
9437;DHT22;4757;59.334;18.034;2023-03-19T06:31:04;3.50;99.90
9437;DHT22;4757;59.334;18.034;2023-03-19T06:33:31;3.50;99.90
9437;DHT22;4757;59.334;18.034;2023-03-19T06:35:59;3.50;99.90
9437;DHT22;4757;59.334;18.034;2023-03-19T06:38:26;3.50;99.90
9437;DHT22;4757;59.334;18.034;2023-03-19T06:40:53;3.50;99.90
9437;DHT22;4757;59.334;18.034;2023-03-19T06:43:20;3.50;99.90
9437;DHT22;4757;59.334;18.034;2023-03-19T06:45:47;3.60;99.90
9437;DHT22;4757;59.334;18.034;2023-03-19T06:48:15;3.60;99.90
9437;DHT22;4757;59.334;18.034;2023-03-19T06:50:44;3.60;99.90
9437;DHT22;4757;59.334;18.034;2023-03-19T06:53:14;3.70;99.90
9437;DHT22;4757;59.334;18.034;2023-03-19T06:55:45;3.70;99.90
9437;DHT22;4757;59.334;18.034;2023-03-19T06:58:14;3.70;99.90
9437;DHT22;4757;59.334;18.034;2023-03-19T07:00:42;3.70;99.90
9437;DHT22;4757;59.334;18.034;2023-03-19T07:03:10;3.70;99.90
9437;DHT22;4757;59.334;18.034;2023-03-19T07:05:37;3.70;99.90
9437;DHT22;4757;59.334;18.034;2023-03-19T07:08:05;3.80;99.90
9437;DHT22;4757;59.334;18.034;2023-03-19T07:10:38;3.70;99.90
9437;DHT22;4757;59.334;18.034;2023-03-19T07:13:05;3.70;99.90
9437;DHT22;4757;59.334;18.034;2023-03-19T07:15:36;3.90;99.90
9437;DHT22;4757;59.334;18.034;2023-03-19T07:18:03;3.90;99.90
9437;DHT22;4757;59.334;18.034;2023-03-19T07:20:31;3.90;99.90
9437;DHT22;4757;59.334;18.034;2023-03-19T07:22:59;3.90;99.90
9437;DHT22;4757;59.334;18.034;2023-03-19T07:25:28;4.00;99.90
9437;DHT22;4757;59.334;18.034;2023-03-19T07:27:56;4.00;99.90
9437;DHT22;4757;59.334;18.034;2023-03-19T07:30:23;4.00;99.90
9437;DHT22;4757;59.334;18.034;2023-03-19T07:32:51;4.10;99.90
9437;DHT22;4757;59.334;18.034;2023-03-19T07:35:18;4.10;99.90
9437;DHT22;4757;59.334;18.034;2023-03-19T07:37:45;4.10;99.90
9437;DHT22;4757;59.334;18.034;2023-03-19T07:40:12;4.20;99.90
9437;DHT22;4757;59.334;18.034;2023-03-19T07:42:40;4.20;99.90
9437;DHT22;4757;59.334;18.034;2023-03-19T07:45:10;4.30;99.90
9437;DHT22;4757;59.334;18.034;2023-03-19T07:47:37;4.40;99.90
9437;DHT22;4757;59.334;18.034;2023-03-19T07:50:06;4.40;99.90
9437;DHT22;4757;59.334;18.034;2023-03-19T07:52:39;4.60;99.90
9437;DHT22;4757;59.334;18.034;2023-03-19T07:55:08;4.70;99.90
9437;DHT22;4757;59.334;18.034;2023-03-19T07:57:47;4.70;99.90
9437;DHT22;4757;59.334;18.034;2023-03-19T08:00:15;4.70;99.90
9437;DHT22;4757;59.334;18.034;2023-03-19T08:02:42;4.60;99.90
9437;DHT22;4757;59.334;18.034;2023-03-19T08:05:10;4.70;99.90
9437;DHT22;4757;59.334;18.034;2023-03-19T08:07:40;4.70;99.90
9437;DHT22;4757;59.334;18.034;2023-03-19T08:10:08;4.70;99.90
9437;DHT22;4757;59.334;18.034;2023-03-19T08:12:40;4.70;99.90
9437;DHT22;4757;59.334;18.034;2023-03-19T08:15:09;4.80;99.90
9437;DHT22;4757;59.334;18.034;2023-03-19T08:17:37;4.60;99.90
9437;DHT22;4757;59.334;18.034;2023-03-19T08:20:10;4.30;99.90
9437;DHT22;4757;59.334;18.034;2023-03-19T08:22:40;4.40;99.90
9437;DHT22;4757;59.334;18.034;2023-03-19T08:25:11;4.30;99.90
9437;DHT22;4757;59.334;18.034;2023-03-19T08:27:38;4.20;99.90
9437;DHT22;4757;59.334;18.034;2023-03-19T08:30:07;4.40;99.90
9437;DHT22;4757;59.334;18.034;2023-03-19T08:32:37;4.30;99.90
9437;DHT22;4757;59.334;18.034;2023-03-19T08:35:04;4.50;99.90
9437;DHT22;4757;59.334;18.034;2023-03-19T08:37:32;4.60;99.90
9437;DHT22;4757;59.334;18.034;2023-03-19T08:39:59;4.80;99.90
9437;DHT22;4757;59.334;18.034;2023-03-19T08:42:27;4.90;99.90
9437;DHT22;4757;59.334;18.034;2023-03-19T08:44:55;4.50;99.90
9437;DHT22;4757;59.334;18.034;2023-03-19T08:47:22;4.50;99.90
9437;DHT22;4757;59.334;18.034;2023-03-19T08:49:50;4.70;99.90
9437;DHT22;4757;59.334;18.034;2023-03-19T08:52:19;4.80;99.90
9437;DHT22;4757;59.334;18.034;2023-03-19T08:54:49;5.00;99.90
9437;DHT22;4757;59.334;18.034;2023-03-19T08:57:16;5.00;99.90
9437;DHT22;4757;59.334;18.034;2023-03-19T08:59:43;5.10;99.90
9437;DHT22;4757;59.334;18.034;2023-03-19T09:02:11;5.00;99.90
9437;DHT22;4757;59.334;18.034;2023-03-19T09:04:42;4.80;99.90
9437;DHT22;4757;59.334;18.034;2023-03-19T09:07:10;5.10;99.90
9437;DHT22;4757;59.334;18.034;2023-03-19T09:09:46;5.30;99.90
9437;DHT22;4757;59.334;18.034;2023-03-19T09:12:15;5.30;99.90
9437;DHT22;4757;59.334;18.034;2023-03-19T09:14:43;5.10;99.90
9437;DHT22;4757;59.334;18.034;2023-03-19T09:17:10;5.10;99.90
9437;DHT22;4757;59.334;18.034;2023-03-19T09:19:39;4.90;99.90
9437;DHT22;4757;59.334;18.034;2023-03-19T09:22:07;4.90;99.90
9437;DHT22;4757;59.334;18.034;2023-03-19T09:24:34;4.90;99.90
9437;DHT22;4757;59.334;18.034;2023-03-19T09:27:05;4.90;99.90
9437;DHT22;4757;59.334;18.034;2023-03-19T09:29:32;5.00;99.90
9437;DHT22;4757;59.334;18.034;2023-03-19T09:32:00;5.00;99.90
9437;DHT22;4757;59.334;18.034;2023-03-19T09:34:29;5.10;99.90
9437;DHT22;4757;59.334;18.034;2023-03-19T09:36:57;5.10;99.90
9437;DHT22;4757;59.334;18.034;2023-03-19T09:39:24;5.20;99.90
9437;DHT22;4757;59.334;18.034;2023-03-19T09:44:44;5.20;99.90
9437;DHT22;4757;59.334;18.034;2023-03-19T09:47:28;5.40;99.90
9437;DHT22;4757;59.334;18.034;2023-03-19T09:50:08;5.60;99.90
9437;DHT22;4757;59.334;18.034;2023-03-19T09:58:14;5.60;99.90
9437;DHT22;4757;59.334;18.034;2023-03-19T10:00:46;5.60;99.90
9437;DHT22;4757;59.334;18.034;2023-03-19T10:06:34;5.90;99.90
9437;DHT22;4757;59.334;18.034;2023-03-19T10:17:28;6.00;99.90
9437;DHT22;4757;59.334;18.034;2023-03-19T10:20:04;6.30;99.90
9437;DHT22;4757;59.334;18.034;2023-03-19T10:22:56;6.40;99.90
9437;DHT22;4757;59.334;18.034;2023-03-19T10:25:28;6.50;99.90
9437;DHT22;4757;59.334;18.034;2023-03-19T10:28:06;6.20;99.90
9437;DHT22;4757;59.334;18.034;2023-03-19T10:30:38;6.50;99.90
9437;DHT22;4757;59.334;18.034;2023-03-19T10:33:24;6.50;99.90
9437;DHT22;4757;59.334;18.034;2023-03-19T10:36:01;6.60;99.90
9437;DHT22;4757;59.334;18.034;2023-03-19T10:38:40;6.60;99.90
9437;DHT22;4757;59.334;18.034;2023-03-19T10:41:40;6.60;99.90
9437;DHT22;4757;59.334;18.034;2023-03-19T10:44:30;6.90;99.90
9437;DHT22;4757;59.334;18.034;2023-03-19T10:47:08;6.90;99.90
9437;DHT22;4757;59.334;18.034;2023-03-19T10:49:55;7.00;99.90
9437;DHT22;4757;59.334;18.034;2023-03-19T10:52:33;7.00;99.90
9437;DHT22;4757;59.334;18.034;2023-03-19T10:55:16;7.10;99.90
9437;DHT22;4757;59.334;18.034;2023-03-19T10:57:45;7.10;99.90
9437;DHT22;4757;59.334;18.034;2023-03-19T11:00:22;7.10;99.90
9437;DHT22;4757;59.334;18.034;2023-03-19T11:02:52;7.10;99.90
9437;DHT22;4757;59.334;18.034;2023-03-19T11:08:00;7.00;99.90
9437;DHT22;4757;59.334;18.034;2023-03-19T11:10:37;6.90;99.90
9437;DHT22;4757;59.334;18.034;2023-03-19T11:13:24;6.70;99.90
9437;DHT22;4757;59.334;18.034;2023-03-19T11:16:05;6.60;99.90
9437;DHT22;4757;59.334;18.034;2023-03-19T11:18:38;6.50;99.90
9437;DHT22;4757;59.334;18.034;2023-03-19T11:21:13;6.60;99.90
9437;DHT22;4757;59.334;18.034;2023-03-19T11:23:57;7.00;99.90
9437;DHT22;4757;59.334;18.034;2023-03-19T11:26:28;7.20;99.90
9437;DHT22;4757;59.334;18.034;2023-03-19T11:29:03;7.40;99.90
9437;DHT22;4757;59.334;18.034;2023-03-19T11:31:44;7.50;99.90
9437;DHT22;4757;59.334;18.034;2023-03-19T11:48:35;6.60;99.90
9437;DHT22;4757;59.334;18.034;2023-03-19T11:56:57;6.90;99.90
9437;DHT22;4757;59.334;18.034;2023-03-19T12:02:46;6.80;99.90
9437;DHT22;4757;59.334;18.034;2023-03-19T12:05:23;6.90;99.90
9437;DHT22;4757;59.334;18.034;2023-03-19T12:08:24;6.80;99.90
9437;DHT22;4757;59.334;18.034;2023-03-19T12:16:43;6.60;99.90
9437;DHT22;4757;59.334;18.034;2023-03-19T12:19:47;6.80;99.90
9437;DHT22;4757;59.334;18.034;2023-03-19T12:33:46;6.60;99.90
9437;DHT22;4757;59.334;18.034;2023-03-19T12:36:27;6.90;99.90
9437;DHT22;4757;59.334;18.034;2023-03-19T12:39:01;6.90;99.90
9437;DHT22;4757;59.334;18.034;2023-03-19T12:41:32;6.90;99.90
9437;DHT22;4757;59.334;18.034;2023-03-19T12:44:12;6.90;99.90
9437;DHT22;4757;59.334;18.034;2023-03-19T12:46:52;6.80;99.90
9437;DHT22;4757;59.334;18.034;2023-03-19T12:49:57;7.00;99.90
9437;DHT22;4757;59.334;18.034;2023-03-19T12:55:44;7.10;99.90
9437;DHT22;4757;59.334;18.034;2023-03-19T13:01:40;7.10;99.90
9437;DHT22;4757;59.334;18.034;2023-03-19T13:04:20;7.20;99.90
9437;DHT22;4757;59.334;18.034;2023-03-19T13:07:05;7.20;99.90
9437;DHT22;4757;59.334;18.034;2023-03-19T13:12:26;7.30;99.90
9437;DHT22;4757;59.334;18.034;2023-03-19T13:15:40;7.40;99.90
9437;DHT22;4757;59.334;18.034;2023-03-19T13:23:39;7.30;99.90
9437;DHT22;4757;59.334;18.034;2023-03-19T13:26:09;7.40;99.90
9437;DHT22;4757;59.334;18.034;2023-03-19T13:28:58;7.40;99.90
9437;DHT22;4757;59.334;18.034;2023-03-19T13:31:26;7.50;99.90
9437;DHT22;4757;59.334;18.034;2023-03-19T13:34:15;7.50;99.90
9437;DHT22;4757;59.334;18.034;2023-03-19T13:36:47;7.50;99.90
9437;DHT22;4757;59.334;18.034;2023-03-19T13:39:25;7.50;99.90
9437;DHT22;4757;59.334;18.034;2023-03-19T13:48:52;7.60;99.90
9437;DHT22;4757;59.334;18.034;2023-03-19T14:18:41;7.70;99.90
9437;DHT22;4757;59.334;18.034;2023-03-19T14:25:20;7.70;99.90
9437;DHT22;4757;59.334;18.034;2023-03-19T14:28:28;7.70;99.90
9437;DHT22;4757;59.334;18.034;2023-03-19T15:06:00;7.70;99.90
9437;DHT22;4757;59.334;18.034;2023-03-19T15:11:52;7.60;99.90
9437;DHT22;4757;59.334;18.034;2023-03-19T15:18:56;7.60;99.90
9437;DHT22;4757;59.334;18.034;2023-03-19T15:22:14;7.50;99.90
9437;DHT22;4757;59.334;18.034;2023-03-19T15:29:09;7.30;99.90
9437;DHT22;4757;59.334;18.034;2023-03-19T15:36:18;7.30;99.90
9437;DHT22;4757;59.334;18.034;2023-03-19T15:39:44;7.50;99.90
9437;DHT22;4757;59.334;18.034;2023-03-19T15:42:50;7.30;99.90
9437;DHT22;4757;59.334;18.034;2023-03-19T16:20:50;6.50;99.90
9437;DHT22;4757;59.334;18.034;2023-03-19T17:11:30;6.20;99.90
9437;DHT22;4757;59.334;18.034;2023-03-19T17:14:04;5.90;99.90
9437;DHT22;4757;59.334;18.034;2023-03-19T17:16:37;5.90;99.90
9437;DHT22;4757;59.334;18.034;2023-03-19T17:44:38;5.80;99.90
9437;DHT22;4757;59.334;18.034;2023-03-19T17:47:10;5.50;99.90
9437;DHT22;4757;59.334;18.034;2023-03-19T17:49:38;5.50;99.90
9437;DHT22;4757;59.334;18.034;2023-03-19T17:52:29;5.50;99.90
9437;DHT22;4757;59.334;18.034;2023-03-19T17:55:27;5.50;99.90
9437;DHT22;4757;59.334;18.034;2023-03-19T17:57:57;5.40;99.90
9437;DHT22;4757;59.334;18.034;2023-03-19T18:00:24;5.50;99.90
9437;DHT22;4757;59.334;18.034;2023-03-19T18:02:56;5.40;99.90
9437;DHT22;4757;59.334;18.034;2023-03-19T18:05:25;5.40;99.90
9437;DHT22;4757;59.334;18.034;2023-03-19T18:07:56;5.40;99.90
9437;DHT22;4757;59.334;18.034;2023-03-19T18:10:26;5.40;99.90
9437;DHT22;4757;59.334;18.034;2023-03-19T18:12:56;5.30;99.90
9437;DHT22;4757;59.334;18.034;2023-03-19T18:15:28;5.40;99.90
9437;DHT22;4757;59.334;18.034;2023-03-19T18:18:01;5.30;99.90
9437;DHT22;4757;59.334;18.034;2023-03-19T18:20:35;5.30;99.90
9437;DHT22;4757;59.334;18.034;2023-03-19T18:23:06;5.30;99.90
9437;DHT22;4757;59.334;18.034;2023-03-19T18:25:35;5.30;99.90
9437;DHT22;4757;59.334;18.034;2023-03-19T18:28:03;5.20;99.90
9437;DHT22;4757;59.334;18.034;2023-03-19T18:30:32;5.20;99.90
9437;DHT22;4757;59.334;18.034;2023-03-19T18:33:03;5.10;99.90
9437;DHT22;4757;59.334;18.034;2023-03-19T18:35:39;5.00;99.90
9437;DHT22;4757;59.334;18.034;2023-03-19T18:38:19;5.00;99.90
9437;DHT22;4757;59.334;18.034;2023-03-19T18:40:49;5.00;99.90
9437;DHT22;4757;59.334;18.034;2023-03-19T18:43:20;4.90;99.90
9437;DHT22;4757;59.334;18.034;2023-03-19T18:45:52;4.80;99.90
9437;DHT22;4757;59.334;18.034;2023-03-19T18:50:51;4.80;99.90
9437;DHT22;4757;59.334;18.034;2023-03-19T18:53:41;4.60;99.90
9437;DHT22;4757;59.334;18.034;2023-03-19T18:56:24;4.70;99.90
9437;DHT22;4757;59.334;18.034;2023-03-19T18:58:54;4.60;99.90
9437;DHT22;4757;59.334;18.034;2023-03-19T19:01:22;4.50;99.90
9437;DHT22;4757;59.334;18.034;2023-03-19T19:03:50;4.50;99.90
9437;DHT22;4757;59.334;18.034;2023-03-19T19:06:27;4.40;99.90
9437;DHT22;4757;59.334;18.034;2023-03-19T19:09:13;4.30;99.90
9437;DHT22;4757;59.334;18.034;2023-03-19T19:11:41;4.30;99.90
9437;DHT22;4757;59.334;18.034;2023-03-19T19:14:18;4.40;99.90
9437;DHT22;4757;59.334;18.034;2023-03-19T19:16:46;4.30;99.90
9437;DHT22;4757;59.334;18.034;2023-03-19T19:19:22;4.10;99.90
9437;DHT22;4757;59.334;18.034;2023-03-19T19:21:50;4.10;99.90
9437;DHT22;4757;59.334;18.034;2023-03-19T19:24:17;4.10;99.90
9437;DHT22;4757;59.334;18.034;2023-03-19T19:26:49;4.10;99.90
9437;DHT22;4757;59.334;18.034;2023-03-19T19:29:25;4.20;99.90
9437;DHT22;4757;59.334;18.034;2023-03-19T19:31:55;4.20;99.90
9437;DHT22;4757;59.334;18.034;2023-03-19T19:34:23;4.20;99.90
9437;DHT22;4757;59.334;18.034;2023-03-19T19:36:50;4.20;99.90
9437;DHT22;4757;59.334;18.034;2023-03-19T19:39:18;4.20;99.90
9437;DHT22;4757;59.334;18.034;2023-03-19T19:41:45;4.30;99.90
9437;DHT22;4757;59.334;18.034;2023-03-19T19:44:21;4.20;99.90
9437;DHT22;4757;59.334;18.034;2023-03-19T19:46:48;4.20;99.90
9437;DHT22;4757;59.334;18.034;2023-03-19T19:49:20;4.20;99.90
9437;DHT22;4757;59.334;18.034;2023-03-19T19:51:50;4.20;99.90
9437;DHT22;4757;59.334;18.034;2023-03-19T19:54:19;4.30;99.90
9437;DHT22;4757;59.334;18.034;2023-03-19T19:56:50;4.20;99.90
9437;DHT22;4757;59.334;18.034;2023-03-19T19:59:18;4.30;99.90
9437;DHT22;4757;59.334;18.034;2023-03-19T20:01:58;4.30;99.90
9437;DHT22;4757;59.334;18.034;2023-03-19T20:04:25;4.30;99.90
9437;DHT22;4757;59.334;18.034;2023-03-19T20:06:56;4.20;99.90
9437;DHT22;4757;59.334;18.034;2023-03-19T20:09:23;4.20;99.90
9437;DHT22;4757;59.334;18.034;2023-03-19T20:11:50;4.20;99.90
9437;DHT22;4757;59.334;18.034;2023-03-19T20:14:22;4.20;99.90
9437;DHT22;4757;59.334;18.034;2023-03-19T20:16:49;4.20;99.90
9437;DHT22;4757;59.334;18.034;2023-03-19T20:19:17;4.20;99.90
9437;DHT22;4757;59.334;18.034;2023-03-19T20:21:46;4.10;99.90
9437;DHT22;4757;59.334;18.034;2023-03-19T20:24:14;4.10;99.90
9437;DHT22;4757;59.334;18.034;2023-03-19T20:26:42;4.10;99.90
9437;DHT22;4757;59.334;18.034;2023-03-19T20:29:13;4.10;99.90
9437;DHT22;4757;59.334;18.034;2023-03-19T20:31:43;4.10;99.90
9437;DHT22;4757;59.334;18.034;2023-03-19T20:34:14;4.20;99.90
9437;DHT22;4757;59.334;18.034;2023-03-19T20:36:58;3.90;99.90
9437;DHT22;4757;59.334;18.034;2023-03-19T20:39:25;3.80;99.90
9437;DHT22;4757;59.334;18.034;2023-03-19T20:41:54;3.70;99.90
9437;DHT22;4757;59.334;18.034;2023-03-19T20:44:24;3.70;99.90
9437;DHT22;4757;59.334;18.034;2023-03-19T20:46:51;3.50;99.90
9437;DHT22;4757;59.334;18.034;2023-03-19T20:49:18;3.60;99.90
9437;DHT22;4757;59.334;18.034;2023-03-19T20:51:46;3.50;99.90
9437;DHT22;4757;59.334;18.034;2023-03-19T20:54:13;3.40;99.90
9437;DHT22;4757;59.334;18.034;2023-03-19T20:56:41;3.40;99.90
9437;DHT22;4757;59.334;18.034;2023-03-19T20:59:10;3.30;99.90
9437;DHT22;4757;59.334;18.034;2023-03-19T21:01:37;3.30;99.90
9437;DHT22;4757;59.334;18.034;2023-03-19T21:04:04;3.30;99.90
9437;DHT22;4757;59.334;18.034;2023-03-19T21:06:32;3.20;99.90
9437;DHT22;4757;59.334;18.034;2023-03-19T21:09:18;3.40;99.90
9437;DHT22;4757;59.334;18.034;2023-03-19T21:11:45;3.40;99.90
9437;DHT22;4757;59.334;18.034;2023-03-19T21:14:15;3.60;99.90
9437;DHT22;4757;59.334;18.034;2023-03-19T21:16:42;3.50;99.90